Terminal Aerodrome Forecast
Issued by NWS

Home | Current Version | Previous Version | Text Only | Print | Product List | Glossary On
Versions: 1 2 3 4 5 6 7 8 9 10 11 12
000
FTUS45 KABQ 262300
TAFTCC
TAF
KTCC 262333Z 2700/2724 VRB03KT P6SM SCT250
     FM270200 30006KT P6SM BKN250
     FM271000 26007KT P6SM BKN200
     FM271900 22010G17KT P6SM SCT120 BKN200=

USA.gov is the U.S. government's official web portal to all federal, state and local government web resources and services.